Time;durP1;ratioP1;P1;durP2;ratioP2;P2;SDS_P1;SDS_P2;PMS_P1;PMS_P2;Temp;Humidity;BMP_temperature;BMP_pressure;BME280_temperature;BME280_humidity;BME280_pressure;Samples;Min_cycle;Max_cycle;Signal;HPM_P1;HPM_P2
2023/09/29 00:00:12;;;;;;;5.87;3.93;;;17.10;99.30;;;;;;20831645;28;20260;-61
2023/09/29 00:10:20;;;;;;;6.40;3.83;;;17.00;99.40;;;;;;20831405;28;20211;-61
2023/09/29 00:20:23;;;;;;;7.47;4.27;;;16.90;99.60;;;;;;20830757;28;20326;-61
2023/09/29 00:30:27;;;;;;;9.70;4.00;;;16.90;99.80;;;;;;20842732;28;20260;-61
2023/09/29 00:40:29;;;;;;;7.07;4.50;;;16.80;99.80;;;;;;20829517;28;20328;-61
2023/09/29 00:50:31;;;;;;;6.33;3.97;;;16.70;99.90;;;;;;20829539;28;20241;-61
2023/09/29 01:00:36;;;;;;;5.83;4.00;;;16.70;99.90;;;;;;20840258;28;20239;-61
2023/09/29 01:10:40;;;;;;;6.07;4.30;;;16.70;99.90;;;;;;20844836;28;20609;-61
2023/09/29 01:20:43;;;;;;;7.60;3.97;;;16.50;99.90;;;;;;20844350;28;20586;-62
2023/09/29 01:30:45;;;;;;;6.63;4.50;;;16.50;99.90;;;;;;20843124;28;20297;-60
2023/09/29 01:40:47;;;;;;;6.30;3.90;;;16.40;99.90;;;;;;20842671;28;20738;-61
2023/09/29 01:50:49;;;;;;;7.47;4.00;;;16.40;99.90;;;;;;20842191;28;20293;-61
2023/09/29 02:00:50;;;;;;;8.60;4.07;;;16.10;99.90;;;;;;20840854;28;20240;-61
2023/09/29 02:10:52;;;;;;;6.10;3.87;;;16.00;99.90;;;;;;20839840;28;20302;-61
2023/09/29 02:20:55;;;;;;;14.13;4.37;;;16.00;99.90;;;;;;20839916;28;20236;-61
2023/09/29 02:30:58;;;;;;;5.10;3.97;;;15.90;99.90;;;;;;20821744;28;20294;-61
2023/09/29 02:41:00;;;;;;;5.80;4.30;;;15.80;99.90;;;;;;20837645;28;20275;-61
2023/09/29 02:51:02;;;;;;;7.33;4.13;;;15.70;99.90;;;;;;20837479;28;20236;-61
2023/09/29 03:01:06;;;;;;;6.03;4.37;;;15.80;99.90;;;;;;20818772;28;20235;-61
2023/09/29 03:11:09;;;;;;;13.07;4.60;;;15.80;99.90;;;;;;20835492;28;20216;-61
2023/09/29 03:21:11;;;;;;;8.93;4.10;;;15.70;99.90;;;;;;20833827;28;20515;-61
2023/09/29 03:31:13;;;;;;;9.17;4.00;;;15.60;99.90;;;;;;20833568;28;20309;-61
2023/09/29 03:41:15;;;;;;;8.40;4.50;;;15.60;99.90;;;;;;20832915;28;20236;-60
2023/09/29 03:51:22;;;;;;;6.00;4.73;;;15.60;99.90;;;;;;20832702;28;20633;-61
2023/09/29 04:01:25;;;;;;;8.73;4.47;;;15.50;99.90;;;;;;20831589;28;20298;-61
2023/09/29 04:11:26;;;;;;;10.30;4.23;;;15.40;99.90;;;;;;20831052;28;20212;-61
2023/09/29 04:21:28;;;;;;;6.30;4.50;;;15.30;99.90;;;;;;20830615;28;20287;-61
2023/09/29 04:31:30;;;;;;;8.20;4.00;;;15.30;99.90;;;;;;20829127;28;20225;-61
2023/09/29 04:41:32;;;;;;;9.30;4.73;;;15.20;99.90;;;;;;20829454;28;20238;-61
2023/09/29 04:51:38;;;;;;;17.20;4.40;;;15.20;99.90;;;;;;20829237;28;20220;-62
2023/09/29 05:01:40;;;;;;;11.80;4.87;;;15.10;99.90;;;;;;20828726;28;20236;-61
2023/09/29 05:11:42;;;;;;;11.93;4.70;;;15.20;99.90;;;;;;20832291;28;20208;-61
2023/09/29 05:21:44;;;;;;;9.20;4.57;;;15.40;99.90;;;;;;20898407;28;20267;-63
2023/09/29 05:31:46;;;;;;;10.07;4.90;;;15.40;99.90;;;;;;20827575;28;20325;-60
2023/09/29 05:41:47;;;;;;;14.93;5.10;;;15.40;99.90;;;;;;20859436;28;20234;-62
2023/09/29 05:51:49;;;;;;;11.30;5.40;;;15.50;99.90;;;;;;20924725;28;20208;-61
2023/09/29 06:01:51;;;;;;;14.63;5.10;;;15.60;99.90;;;;;;20923669;28;20239;-63
2023/09/29 06:12:09;;;;;;;8.87;5.13;;;15.80;99.90;;;;;;20895906;28;20206;-63
2023/09/29 06:22:11;;;;;;;56.47;8.00;;;15.80;99.90;;;;;;20894270;28;20236;-62
2023/09/29 06:32:13;;;;;;;41.93;8.40;;;16.00;99.90;;;;;;20920388;28;20275;-63
2023/09/29 06:42:15;;;;;;;16.67;6.37;;;16.20;99.90;;;;;;20919868;28;20238;-64
2023/09/29 06:52:16;;;;;;;16.50;5.70;;;16.20;99.90;;;;;;20918852;28;20302;-61
2023/09/29 07:02:18;;;;;;;24.80;5.67;;;16.30;99.90;;;;;;20917617;28;20241;-61
2023/09/29 07:12:20;;;;;;;16.30;5.80;;;16.30;99.90;;;;;;20915850;28;20231;-64
2023/09/29 07:22:21;;;;;;;22.07;6.30;;;16.50;99.90;;;;;;20834286;28;20274;-63
2023/09/29 07:32:26;;;;;;;9.10;5.90;;;16.70;99.90;;;;;;20832690;28;20331;-63
2023/09/29 07:42:27;;;;;;;9.17;5.80;;;16.70;99.90;;;;;;20832219;28;20733;-63
2023/09/29 07:52:29;;;;;;;10.00;5.40;;;17.00;99.90;;;;;;20831883;28;20218;-66
2023/09/29 08:02:31;;;;;;;14.57;5.53;;;17.30;99.90;;;;;;20830870;28;20246;-67
2023/09/29 08:12:33;;;;;;;10.90;5.53;;;17.60;99.90;;;;;;20832870;28;20199;-65
2023/09/29 08:22:35;;;;;;;16.13;5.83;;;17.90;99.90;;;;;;20912303;28;20258;-66
2023/09/29 08:32:43;;;;;;;13.30;5.60;;;18.20;99.90;;;;;;20911502;28;20238;-66
2023/09/29 08:42:49;;;;;;;13.17;5.43;;;18.40;99.50;;;;;;20911018;28;20635;-66
2023/09/29 08:52:53;;;;;;;11.83;5.67;;;18.60;99.10;;;;;;20911202;28;20200;-63
2023/09/29 09:02:55;;;;;;;8.40;4.90;;;19.30;98.50;;;;;;20910304;28;20618;-68
2023/09/29 09:12:57;;;;;;;37.07;15.80;;;19.50;98.00;;;;;;20903499;28;20554;-71
2023/09/29 09:23:02;;;;;;;36.10;16.50;;;19.90;97.60;;;;;;20837239;28;20229;-65
2023/09/29 09:33:05;;;;;;;196.60;76.73;;;20.10;97.30;;;;;;20842370;28;20366;-67
2023/09/29 09:43:09;;;;;;;15.43;5.67;;;20.50;96.70;;;;;;20841827;28;20236;-65
2023/09/29 09:53:13;;;;;;;17.73;7.03;;;20.80;96.30;;;;;;20839603;28;20213;-65
2023/09/29 10:03:17;;;;;;;9.10;4.53;;;;;;;;;;20840116;28;20228;-67
2023/09/29 10:13:19;;;;;;;9.03;4.50;;;;;;;;;;20839369;28;20630;-65
2023/09/29 10:23:25;;;;;;;14.13;4.20;;;20.90;95.90;;;;;;20839251;28;20236;-65
2023/09/29 10:33:27;;;;;;;11.50;6.30;;;22.10;94.70;;;;;;20837528;28;20264;-65
2023/09/29 10:43:34;;;;;;;7.80;4.50;;;22.40;94.10;;;;;;20837399;28;20240;-66
2023/09/29 10:53:37;;;;;;;10.60;4.30;;;;;;;;;;20837119;28;20216;-65
2023/09/29 11:03:38;;;;;;;7.90;3.90;;;22.70;93.50;;;;;;20835750;28;20240;-69
2023/09/29 11:13:41;;;;;;;9.67;3.87;;;;;;;;;;20835012;28;20269;-70
2023/09/29 11:23:47;;;;;;;15.37;4.00;;;;;;;;;;20833852;28;20239;-70
2023/09/29 11:33:49;;;;;;;4.40;3.77;;;;;;;;;;20833660;28;20233;-70
2023/09/29 11:43:51;;;;;;;8.97;3.40;;;23.20;91.50;;;;;;20831937;28;20593;-70
2023/09/29 11:53:53;;;;;;;10.03;3.30;;;24.20;84.10;;;;;;20814658;28;20271;-65
2023/09/29 12:03:56;;;;;;;4.05;3.13;;;24.60;81.00;;;;;;20814117;28;20232;-66
2023/09/29 12:13:58;;;;;;;7.17;3.40;;;24.80;78.70;;;;;;20830715;28;20200;-66
2023/09/29 12:24:01;;;;;;;5.73;2.80;;;25.20;76.20;;;;;;20829586;28;20236;-64
2023/09/29 12:34:04;;;;;;;8.30;3.20;;;25.50;75.20;;;;;;20812138;28;20637;-70
2023/09/29 12:44:06;;;;;;;5.10;3.38;;;25.60;74.60;;;;;;20829085;28;20332;-71
2023/09/29 12:54:08;;;;;;;8.87;3.37;;;25.80;74.40;;;;;;20836367;28;20211;-71
2023/09/29 13:04:10;;;;;;;4.18;3.03;;;25.90;74.10;;;;;;20845560;28;20761;-69
2023/09/29 13:14:12;;;;;;;5.03;3.17;;;26.00;73.50;;;;;;20845080;28;20205;-69
2023/09/29 13:24:13;;;;;;;5.15;2.95;;;26.10;72.10;;;;;;20843302;28;20564;-65
2023/09/29 13:34:15;;;;;;;6.53;3.75;;;26.20;71.30;;;;;;20842848;28;20300;-65
2023/09/29 13:44:17;;;;;;;7.07;3.20;;;26.10;71.00;;;;;;20842232;28;20726;-65
2023/09/29 13:54:19;;;;;;;6.40;3.10;;;26.30;71.00;;;;;;20841562;28;20211;-65
2023/09/29 14:04:21;;;;;;;6.53;3.17;;;26.20;71.60;;;;;;20840176;28;20598;-65
2023/09/29 14:14:23;;;;;;;5.47;3.25;;;26.20;71.50;;;;;;20839906;28;20215;-68
2023/09/29 14:24:25;;;;;;;5.65;3.30;;;26.10;70.80;;;;;;20839321;28;20272;-66
2023/09/29 14:34:26;;;;;;;7.93;3.28;;;26.50;71.00;;;;;;20838797;28;20237;-68
2023/09/29 14:44:28;;;;;;;7.30;3.38;;;26.40;70.50;;;;;;20837595;28;20275;-71
2023/09/29 14:54:30;;;;;;;6.07;3.80;;;25.70;72.90;;;;;;20836845;28;20200;-69
2023/09/29 15:04:32;;;;;;;12.63;3.43;;;25.40;74.40;;;;;;20818874;28;20239;-69
2023/09/29 15:14:54;;;;;;;31.15;5.35;;;25.30;75.70;;;;;;20835292;28;20208;-70
2023/09/29 15:24:56;;;;;;;4.63;2.90;;;25.10;78.40;;;;;;20834574;28;20279;-68
2023/09/29 15:34:58;;;;;;;6.33;3.20;;;24.60;81.30;;;;;;20834164;28;20319;-64
2023/09/29 15:45:00;;;;;;;11.20;3.90;;;;;;;;;;20832973;28;20242;-66
2023/09/29 15:55:03;;;;;;;7.43;4.10;;;;;;;;;;20832290;28;20211;-69
2023/09/29 16:05:05;;;;;;;12.13;5.50;;;;;;;;;;20831930;28;20232;-65
2023/09/29 16:15:08;;;;;;;14.37;5.80;;;;;;;;;;20831097;28;20226;-66
2023/09/29 16:25:11;;;;;;;15.40;7.30;;;;;;;;;;20830112;28;20263;-67
2023/09/29 16:35:13;;;;;;;16.87;7.17;;;;;;;;;;20830248;28;20232;-70
2023/09/29 16:45:25;;;;;;;18.23;8.10;;;;;;;;;;20829390;28;20232;-67
2023/09/29 16:55:27;;;;;;;19.50;8.40;;;;;;;;;;20829790;28;20715;-66
2023/09/29 17:05:29;;;;;;;23.17;10.47;;;;;;;;;;20829151;28;20262;-70
2023/09/29 17:15:32;;;;;;;30.90;11.90;;;;;;;;;;20828293;28;20207;-70
2023/09/29 17:25:34;;;;;;;30.37;14.03;;;;;;;;;;20827764;28;20282;-65
2023/09/29 17:35:37;;;;;;;30.90;13.40;;;;;;;;;;20827527;28;20247;-64
2023/09/29 17:45:39;;;;;;;29.53;13.33;;;;;;;;;;20840965;28;20772;-65
2023/09/29 17:55:42;;;;;;;29.90;13.17;;;;;;;;;;20841844;28;20210;-68
2023/09/29 18:05:44;;;;;;;27.97;12.60;;;;;;;;;;20841257;28;20703;-68
2023/09/29 18:15:47;;;;;;;28.47;12.40;;;;;;;;;;20840117;28;20205;-64
2023/09/29 18:25:49;;;;;;;29.30;13.10;;;24.20;83.20;;;;;;20839308;28;20238;-64
2023/09/29 18:35:52;;;;;;;29.87;12.27;;;21.50;80.60;;;;;;20838926;28;20659;-67
2023/09/29 18:46:01;;;;;;;28.27;12.67;;;21.40;80.80;;;;;;20837804;28;20232;-66
2023/09/29 18:56:03;;;;;;;34.70;12.13;;;21.30;81.00;;;;;;20836555;28;20212;-66
2023/09/29 19:06:05;;;;;;;25.83;11.57;;;21.20;81.20;;;;;;20836633;28;20239;-67
2023/09/29 19:16:07;;;;;;;27.20;11.87;;;21.20;81.70;;;;;;20834801;28;20217;-64
2023/09/29 19:26:16;;;;;;;27.40;11.50;;;;;;;;;;20834550;28;20274;-67
2023/09/29 19:36:17;;;;;;;29.50;12.17;;;21.20;82.00;;;;;;20833909;28;20236;-67
2023/09/29 19:46:21;;;;;;;25.33;11.40;;;21.00;82.90;;;;;;20833065;28;20228;-63
2023/09/29 19:56:24;;;;;;;26.67;11.60;;;20.80;83.50;;;;;;20815782;28;20232;-67
2023/09/29 20:06:26;;;;;;;23.73;10.60;;;20.70;84.20;;;;;;20831390;28;20319;-67
2023/09/29 20:16:28;;;;;;;25.13;11.03;;;20.60;84.70;;;;;;20831040;28;20215;-67
2023/09/29 20:26:34;;;;;;;26.70;10.93;;;20.50;85.40;;;;;;20830788;28;20240;-70
2023/09/29 20:36:36;;;;;;;21.57;10.03;;;20.50;86.10;;;;;;20813501;28;20286;-66
2023/09/29 20:46:38;;;;;;;26.60;10.43;;;20.40;86.70;;;;;;20829621;28;20654;-69
2023/09/29 20:56:40;;;;;;;21.83;9.87;;;20.40;87.30;;;;;;20829183;28;20578;-66
2023/09/29 21:06:42;;;;;;;21.20;9.03;;;20.30;88.00;;;;;;20829318;28;20258;-65
2023/09/29 21:16:44;;;;;;;22.87;9.30;;;20.20;88.80;;;;;;20838500;28;20235;-69
2023/09/29 21:26:46;;;;;;;20.97;8.30;;;20.10;89.40;;;;;;20844152;28;20279;-71
2023/09/29 21:36:48;;;;;;;19.87;7.97;;;20.00;90.10;;;;;;20844064;28;20323;-69
2023/09/29 21:46:50;;;;;;;16.67;7.47;;;20.00;90.70;;;;;;20842740;28;20286;-66
2023/09/29 21:56:52;;;;;;;14.40;6.17;;;20.00;91.20;;;;;;20841941;28;20243;-70
2023/09/29 22:06:54;;;;;;;11.90;5.57;;;19.90;91.70;;;;;;20841103;28;20327;-66
2023/09/29 22:16:58;;;;;;;11.67;5.60;;;19.90;92.20;;;;;;20840923;28;20201;-70
2023/09/29 22:27:00;;;;;;;10.33;5.17;;;19.80;92.70;;;;;;20838497;28;20236;-64
2023/09/29 22:37:02;;;;;;;22.37;7.70;;;19.80;93.20;;;;;;20838466;28;20236;-66
2023/09/29 22:47:04;;;;;;;13.53;5.70;;;19.70;93.80;;;;;;20838136;28;20239;-68
2023/09/29 22:57:06;;;;;;;7.37;3.50;;;19.70;94.20;;;;;;20837074;28;20209;-63
2023/09/29 23:07:08;;;;;;;3.60;1.83;;;19.60;95.10;;;;;;20836228;28;20232;-64
2023/09/29 23:17:10;;;;;;;2.13;1.83;;;19.70;96.40;;;;;;20835906;28;20287;-63
2023/09/29 23:27:12;;;;;;;4.07;1.60;;;19.50;97.90;;;;;;20834836;28;20327;-64
2023/09/29 23:37:14;;;;;;;3.03;1.90;;;19.50;99.10;;;;;;20832765;28;20239;-64
2023/09/29 23:47:16;;;;;;;2.53;1.90;;;19.50;99.90;;;;;;20833499;28;20232;-63
2023/09/29 23:57:17;;;;;;;4.10;2.30;;;19.30;99.90;;;;;;20832670;28;20215;-64
